Time;durP1;ratioP1;P1;durP2;ratioP2;P2;SDS_P1;SDS_P2;PMS_P1;PMS_P2;Temp;Humidity;BMP_temperature;BMP_pressure;BME280_temperature;BME280_humidity;BME280_pressure;Samples;Min_cycle;Max_cycle;Signal;HPM_P1;HPM_P2
2024/01/10 00:01:00;;;;;;;;;;;;;;;-6.38;56.88;96413.16;5019963;28;19958;-78
2024/01/10 00:03:26;;;;;;;;;;;;;;;-6.38;59.21;96402.78;5018596;28;19953;-78
2024/01/10 00:05:51;;;;;;;;;;;;;;;-6.39;56.27;96405.47;5002946;28;20372;-78
2024/01/10 00:08:16;;;;;;;;;;;;;;;-6.41;56.88;96397.75;5019263;28;20069;-78
2024/01/10 00:10:42;;;;;;;;;;;;;;;-6.45;58.52;96400.47;5019981;28;19991;-77
2024/01/10 00:13:07;;;;;;;;;;;;;;;-6.56;51.82;96391.31;5021269;28;20340;-78
2024/01/10 00:15:32;;;;;;;;;;;;;;;-6.55;53.02;96389.59;5021075;28;20037;-77
2024/01/10 00:17:58;;;;;;;;;;;;;;;-6.50;55.36;96392.84;5021228;28;20234;-77
2024/01/10 00:20:23;;;;;;;;;;;;;;;-6.58;58.17;96387.94;5021422;28;19958;-77
2024/01/10 00:22:48;;;;;;;;;;;;;;;-6.78;52.92;96388.63;5022055;28;19990;-78
2024/01/10 00:25:14;;;;;;;;;;;;;;;-6.75;50.98;96384.19;5018001;28;19966;-77
2024/01/10 00:27:39;;;;;;;;;;;;;;;-6.66;56.64;96372.66;5020241;28;20211;-77
2024/01/10 00:30:05;;;;;;;;;;;;;;;-6.75;54.62;96379.00;5023258;28;19955;-77
2024/01/10 00:32:30;;;;;;;;;;;;;;;-6.66;51.60;96377.84;5020033;28;19958;-77
2024/01/10 00:34:56;;;;;;;;;;;;;;;-6.62;52.27;96374.25;5020274;28;19942;-77
2024/01/10 00:37:21;;;;;;;;;;;;;;;-6.89;40.95;96365.66;5019695;28;19980;-77
2024/01/10 00:39:46;;;;;;;;;;;;;;;-6.76;49.70;96359.16;5018620;28;19981;-77
2024/01/10 00:42:11;;;;;;;;;;;;;;;-6.57;53.22;96358.53;5019510;28;20595;-77
2024/01/10 00:44:37;;;;;;;;;;;;;;;-6.69;49.00;96346.84;5020452;28;20221;-78
2024/01/10 00:47:02;;;;;;;;;;;;;;;-6.66;48.00;96351.94;5021158;28;19943;-77
2024/01/10 00:49:27;;;;;;;;;;;;;;;-6.68;50.40;96348.56;5017338;28;20046;-77
2024/01/10 00:51:52;;;;;;;;;;;;;;;-6.52;55.77;96359.22;5017360;28;19958;-77
2024/01/10 00:54:18;;;;;;;;;;;;;;;-6.57;51.09;96355.09;4999314;28;20429;-77
2024/01/10 00:56:43;;;;;;;;;;;;;;;-6.40;50.54;96359.69;5016719;28;20339;-77
2024/01/10 00:59:08;;;;;;;;;;;;;;;-6.62;52.40;96350.91;5010350;28;19990;-78
2024/01/10 01:01:33;;;;;;;;;;;;;;;-6.32;57.74;96352.47;5016745;28;20326;-77
2024/01/10 01:03:59;;;;;;;;;;;;;;;-6.40;51.88;96354.50;5014885;28;20079;-77
2024/01/10 01:06:24;;;;;;;;;;;;;;;-6.20;56.71;96346.03;5014856;28;19986;-78
2024/01/10 01:08:49;;;;;;;;;;;;;;;-6.37;51.25;96339.72;5015906;28;19960;-78
2024/01/10 01:11:14;;;;;;;;;;;;;;;-6.39;50.88;96333.72;5016427;28;19963;-78
2024/01/10 01:13:40;;;;;;;;;;;;;;;-6.45;55.40;96330.50;5014358;28;19963;-78
2024/01/10 01:16:05;;;;;;;;;;;;;;;-6.51;54.55;96335.03;5015273;28;19971;-78
2024/01/10 01:18:30;;;;;;;;;;;;;;;-6.49;52.86;96333.19;5015715;28;19953;-79
2024/01/10 01:20:56;;;;;;;;;;;;;;;-6.33;57.60;96342.19;5015219;28;20526;-77
2024/01/10 01:23:21;;;;;;;;;;;;;;;-6.37;56.91;96336.25;5015054;28;19962;-77
2024/01/10 01:25:46;;;;;;;;;;;;;;;-6.62;49.97;96324.19;5015776;28;19935;-77
2024/01/10 01:28:11;;;;;;;;;;;;;;;-6.62;48.55;96312.06;5015611;28;19987;-76
2024/01/10 01:30:39;;;;;;;;;;;;;;;-6.73;52.38;96321.94;5014256;28;20097;-78
2024/01/10 01:33:05;;;;;;;;;;;;;;;-6.63;46.11;96320.75;5016053;28;19952;-78
2024/01/10 01:35:30;;;;;;;;;;;;;;;-6.53;52.96;96328.19;5015238;28;20228;-78
2024/01/10 01:37:55;;;;;;;;;;;;;;;-6.55;57.59;96327.41;5014715;28;20423;-76
2024/01/10 01:40:20;;;;;;;;;;;;;;;-6.38;59.07;96329.41;5016637;28;20289;-78
2024/01/10 01:42:45;;;;;;;;;;;;;;;-6.46;57.11;96327.06;5018343;28;19999;-77
2024/01/10 01:45:11;;;;;;;;;;;;;;;-6.48;56.72;96334.06;5017420;28;19992;-78
2024/01/10 01:47:37;;;;;;;;;;;;;;;-6.41;59.09;96335.53;4996562;28;19953;-77
2024/01/10 01:50:02;;;;;;;;;;;;;;;-6.40;57.99;96328.59;5015523;28;19935;-77
2024/01/10 01:52:28;;;;;;;;;;;;;;;-6.45;58.97;96331.38;5014326;28;20412;-77
2024/01/10 01:54:54;;;;;;;;;;;;;;;-6.45;56.43;96333.97;5013094;28;20597;-77
2024/01/10 01:57:19;;;;;;;;;;;;;;;-6.24;55.80;96329.75;5014753;28;20026;-78
2024/01/10 01:59:44;;;;;;;;;;;;;;;-6.42;49.15;96331.22;5015564;28;19990;-77
2024/01/10 02:02:09;;;;;;;;;;;;;;;-6.33;50.65;96331.84;5016720;28;19962;-77
2024/01/10 02:04:35;;;;;;;;;;;;;;;-6.15;57.62;96327.72;4997298;28;20134;-77
2024/01/10 02:07:00;;;;;;;;;;;;;;;-6.27;54.26;96322.09;4998852;28;20040;-77
2024/01/10 02:09:25;;;;;;;;;;;;;;;-6.22;57.90;96324.47;5017387;28;20361;-77
2024/01/10 02:11:51;;;;;;;;;;;;;;;-6.39;53.97;96327.72;4999697;28;20453;-77
2024/01/10 02:14:16;;;;;;;;;;;;;;;-6.52;57.71;96328.13;5015774;28;20024;-77
2024/01/10 02:16:41;;;;;;;;;;;;;;;-6.53;50.73;96320.41;5015603;28;20003;-77
2024/01/10 02:19:19;;;;;;;;;;;;;;;-6.80;52.61;96325.66;5016256;28;19994;-77
2024/01/10 02:21:45;;;;;;;;;;;;;;;-6.59;54.39;96331.81;5016482;28;19962;-77
2024/01/10 02:24:10;;;;;;;;;;;;;;;-6.45;51.76;96328.78;5015897;28;19925;-77
2024/01/10 02:26:35;;;;;;;;;;;;;;;-6.05;51.51;96317.84;5019242;28;19943;-76
2024/01/10 02:29:00;;;;;;;;;;;;;;;-6.03;50.23;96324.66;5015776;28;20039;-76
2024/01/10 02:31:27;;;;;;;;;;;;;;;-6.05;53.65;96321.28;5014662;28;19960;-76
2024/01/10 02:33:52;;;;;;;;;;;;;;;-6.31;37.74;96314.47;5016431;28;20239;-77
2024/01/10 02:36:17;;;;;;;;;;;;;;;-6.15;46.33;96323.34;5016431;28;19928;-77
2024/01/10 02:38:43;;;;;;;;;;;;;;;-6.24;51.01;96321.13;5017410;28;19938;-77
2024/01/10 02:41:08;;;;;;;;;;;;;;;-6.16;49.15;96318.22;5017648;28;19968;-76
2024/01/10 02:43:33;;;;;;;;;;;;;;;-6.06;52.87;96313.53;5012656;28;19962;-76
2024/01/10 02:45:59;;;;;;;;;;;;;;;-6.12;55.80;96312.88;5017237;28;19946;-77
2024/01/10 02:48:24;;;;;;;;;;;;;;;-6.32;45.61;96312.78;5016565;28;20205;-77
2024/01/10 02:50:50;;;;;;;;;;;;;;;-6.28;44.30;96316.94;5013656;28;20211;-76
2024/01/10 02:53:15;;;;;;;;;;;;;;;-6.39;43.62;96310.41;5017364;28;19965;-77
2024/01/10 02:55:41;;;;;;;;;;;;;;;-6.19;55.13;96314.00;5015233;28;19969;-77
2024/01/10 02:58:07;;;;;;;;;;;;;;;-6.20;55.70;96306.28;5016277;28;20365;-76
2024/01/10 03:00:32;;;;;;;;;;;;;;;-6.37;43.16;96294.78;5014835;28;19964;-76
2024/01/10 03:02:57;;;;;;;;;;;;;;;-6.21;51.27;96294.22;5015930;28;19954;-77
2024/01/10 03:05:22;;;;;;;;;;;;;;;-6.48;42.38;96290.00;5016013;28;19921;-77
2024/01/10 03:07:48;;;;;;;;;;;;;;;-6.28;54.41;96299.63;5014578;28;20713;-77
2024/01/10 03:10:13;;;;;;;;;;;;;;;-6.33;52.72;96292.94;5016993;28;20061;-77
2024/01/10 03:12:38;;;;;;;;;;;;;;;-6.46;50.49;96298.56;5016845;28;19969;-77
2024/01/10 03:15:06;;;;;;;;;;;;;;;-6.51;53.30;96293.56;4998311;28;20155;-77
2024/01/10 03:17:33;;;;;;;;;;;;;;;-6.53;50.51;96284.13;5015696;28;20072;-77
2024/01/10 03:19:58;;;;;;;;;;;;;;;-6.38;45.78;96290.53;5016763;28;20417;-77
2024/01/10 03:22:24;;;;;;;;;;;;;;;-6.41;50.21;96288.03;5016219;28;19963;-76
2024/01/10 03:24:49;;;;;;;;;;;;;;;-6.41;50.00;96281.13;5016058;28;20446;-77
2024/01/10 03:27:14;;;;;;;;;;;;;;;-6.20;56.03;96289.00;5017475;28;20577;-76
2024/01/10 03:29:40;;;;;;;;;;;;;;;-6.20;59.19;96288.13;5019237;28;19917;-77
2024/01/10 03:32:05;;;;;;;;;;;;;;;-6.30;53.29;96298.84;5020036;28;20304;-77
2024/01/10 03:34:31;;;;;;;;;;;;;;;-6.21;57.31;96294.22;5021998;28;19961;-76
2024/01/10 03:36:56;;;;;;;;;;;;;;;-6.19;58.42;96293.25;5018791;28;20248;-76
2024/01/10 03:39:21;;;;;;;;;;;;;;;-6.13;59.69;96292.19;5000883;28;20799;-77
2024/01/10 03:41:47;;;;;;;;;;;;;;;-6.40;47.03;96294.91;5020567;28;20440;-76
2024/01/10 03:44:12;;;;;;;;;;;;;;;-6.43;49.68;96280.31;5020243;28;19976;-77
2024/01/10 03:46:37;;;;;;;;;;;;;;;-6.41;56.42;96285.44;5021753;28;19937;-77
2024/01/10 03:49:02;;;;;;;;;;;;;;;-6.56;48.91;96284.25;5019765;28;19936;-77
2024/01/10 03:51:29;;;;;;;;;;;;;;;-6.39;54.77;96287.06;5020605;28;19961;-76
2024/01/10 03:53:55;;;;;;;;;;;;;;;-6.55;58.04;96285.94;5000298;28;19960;-77
2024/01/10 03:56:20;;;;;;;;;;;;;;;-6.56;55.26;96292.03;5024560;28;20031;-77
2024/01/10 03:58:48;;;;;;;;;;;;;;;-6.41;57.93;96293.22;5034493;28;20245;-77
2024/01/10 04:01:13;;;;;;;;;;;;;;;-6.53;55.13;96290.16;5020533;28;19925;-76
2024/01/10 04:03:41;;;;;;;;;;;;;;;-6.43;55.21;96288.09;5018702;28;19997;-75
2024/01/10 04:06:06;;;;;;;;;;;;;;;-6.70;52.37;96282.16;5021209;28;19943;-76
2024/01/10 04:08:31;;;;;;;;;;;;;;;-6.60;58.54;96288.69;5021324;28;19963;-77
2024/01/10 04:10:57;;;;;;;;;;;;;;;-6.78;53.66;96285.00;5019903;28;19989;-77
2024/01/10 04:13:23;;;;;;;;;;;;;;;-6.79;59.63;96272.97;5021239;28;19934;-77
2024/01/10 04:15:48;;;;;;;;;;;;;;;-6.78;54.39;96279.81;5018778;28;19933;-77
2024/01/10 04:18:14;;;;;;;;;;;;;;;-6.74;56.94;96284.00;5019546;28;20280;-77
2024/01/10 04:20:39;;;;;;;;;;;;;;;-7.14;51.71;96284.47;5020035;28;19953;-76
2024/01/10 04:23:04;;;;;;;;;;;;;;;-6.78;56.35;96285.00;5021446;28;20415;-77
2024/01/10 04:25:29;;;;;;;;;;;;;;;-6.95;49.43;96291.63;5021012;28;19937;-77
2024/01/10 04:27:55;;;;;;;;;;;;;;;-6.85;56.18;96294.75;5020150;28;20150;-77
2024/01/10 04:30:21;;;;;;;;;;;;;;;-6.95;55.55;96291.63;5017955;28;19978;-77
2024/01/10 04:32:46;;;;;;;;;;;;;;;-7.11;52.24;96293.06;5022033;28;20014;-76
2024/01/10 04:35:11;;;;;;;;;;;;;;;-7.02;52.32;96290.13;5018468;28;20257;-76
2024/01/10 04:37:37;;;;;;;;;;;;;;;-7.17;48.62;96289.75;5019629;28;19987;-77
2024/01/10 04:40:02;;;;;;;;;;;;;;;-7.01;56.69;96291.81;5018833;28;19976;-77
2024/01/10 04:42:27;;;;;;;;;;;;;;;-7.28;53.01;96287.53;5018686;28;19945;-77
2024/01/10 04:44:52;;;;;;;;;;;;;;;-7.31;52.00;96277.28;5016004;28;19957;-77
2024/01/10 04:47:18;;;;;;;;;;;;;;;-7.34;54.44;96276.53;5017571;28;19969;-77
2024/01/10 04:49:43;;;;;;;;;;;;;;;-7.10;55.50;96281.78;5016175;28;19940;-77
2024/01/10 04:52:08;;;;;;;;;;;;;;;-7.38;60.15;96280.13;5011695;28;19961;-77
2024/01/10 04:54:34;;;;;;;;;;;;;;;-7.17;58.53;96281.97;5017520;28;20027;-77
2024/01/10 04:56:59;;;;;;;;;;;;;;;-7.26;60.21;96285.72;5019107;28;19973;-77
2024/01/10 04:59:24;;;;;;;;;;;;;;;-7.44;59.15;96284.59;5017330;28;20429;-77
2024/01/10 05:01:49;;;;;;;;;;;;;;;-7.11;59.98;96290.47;5016135;28;19946;-77
2024/01/10 05:04:15;;;;;;;;;;;;;;;-7.38;59.66;96285.31;5017180;28;20113;-77
2024/01/10 05:06:41;;;;;;;;;;;;;;;-7.08;61.57;96280.84;5019150;28;19940;-77
2024/01/10 05:09:06;;;;;;;;;;;;;;;-7.35;58.42;96291.22;5018736;28;19968;-77
2024/01/10 05:11:31;;;;;;;;;;;;;;;-6.65;61.99;96288.03;5018293;28;19961;-77
2024/01/10 05:13:57;;;;;;;;;;;;;;;-6.95;57.10;96293.34;5016265;28;20394;-77
2024/01/10 05:16:22;;;;;;;;;;;;;;;-6.94;59.67;96282.09;5016720;28;20034;-77
2024/01/10 05:18:47;;;;;;;;;;;;;;;-6.70;57.71;96289.94;5018823;28;19999;-77
2024/01/10 05:21:12;;;;;;;;;;;;;;;-6.47;60.33;96289.09;5018408;28;19960;-77
2024/01/10 05:23:40;;;;;;;;;;;;;;;-6.77;56.99;96291.88;5016394;28;19986;-77
2024/01/10 05:26:05;;;;;;;;;;;;;;;-6.44;59.63;96296.78;5016808;28;19933;-77
2024/01/10 05:28:30;;;;;;;;;;;;;;;-6.87;57.75;96299.13;5013828;28;19955;-77
2024/01/10 05:30:56;;;;;;;;;;;;;;;-6.72;48.22;96291.72;5016240;28;19939;-77
2024/01/10 05:33:21;;;;;;;;;;;;;;;-6.78;55.39;96293.63;5018364;28;19997;-77
2024/01/10 05:35:47;;;;;;;;;;;;;;;-6.59;59.25;96292.13;5017457;28;20480;-77
2024/01/10 05:38:12;;;;;;;;;;;;;;;-6.55;59.56;96298.91;5016342;28;20039;-78
2024/01/10 05:40:37;;;;;;;;;;;;;;;-6.96;48.22;96292.53;5019138;28;19956;-77
2024/01/10 05:43:02;;;;;;;;;;;;;;;-7.15;48.47;96287.97;5012788;28;20046;-77
2024/01/10 05:45:28;;;;;;;;;;;;;;;-6.97;51.90;96290.00;5012213;28;19933;-77
2024/01/10 05:47:53;;;;;;;;;;;;;;;-6.85;51.83;96286.13;5016122;28;20053;-78
2024/01/10 05:50:19;;;;;;;;;;;;;;;-6.77;59.33;96287.56;4998014;28;19936;-77
2024/01/10 05:52:44;;;;;;;;;;;;;;;-6.73;51.84;96283.09;5013640;28;20012;-76
2024/01/10 05:55:10;;;;;;;;;;;;;;;-6.81;55.47;96275.59;5014232;28;19991;-76
2024/01/10 05:57:36;;;;;;;;;;;;;;;-6.77;53.33;96274.59;5012192;28;19974;-76
2024/01/10 06:00:01;;;;;;;;;;;;;;;-6.72;55.25;96271.84;5014985;28;19970;-77
2024/01/10 06:02:26;;;;;;;;;;;;;;;-6.77;55.95;96276.34;5014411;28;20254;-78
2024/01/10 06:04:52;;;;;;;;;;;;;;;-6.60;60.49;96280.09;5014107;28;19963;-76
2024/01/10 06:07:17;;;;;;;;;;;;;;;-6.65;57.06;96277.66;5013929;28;20443;-76
2024/01/10 06:09:43;;;;;;;;;;;;;;;-6.97;40.90;96264.94;5016534;28;20436;-78
2024/01/10 06:12:09;;;;;;;;;;;;;;;-6.79;60.26;96267.78;5010921;28;20294;-77
2024/01/10 06:14:34;;;;;;;;;;;;;;;-6.70;53.83;96270.03;5014633;28;19931;-78
2024/01/10 06:17:01;;;;;;;;;;;;;;;-6.68;58.68;96270.84;5012811;28;20536;-77
2024/01/10 06:19:26;;;;;;;;;;;;;;;-6.74;60.17;96271.06;5014789;28;19924;-77
2024/01/10 06:21:52;;;;;;;;;;;;;;;-6.76;59.90;96272.88;5016249;28;19955;-77
2024/01/10 06:24:17;;;;;;;;;;;;;;;-6.77;57.20;96274.59;5015243;28;19973;-76
2024/01/10 06:26:42;;;;;;;;;;;;;;;-6.68;57.84;96268.25;5015423;28;20303;-77
2024/01/10 06:29:08;;;;;;;;;;;;;;;-6.83;55.14;96273.97;5014591;28;20030;-77
2024/01/10 06:31:33;;;;;;;;;;;;;;;-6.94;55.96;96267.41;5013567;28;19925;-77
2024/01/10 06:33:59;;;;;;;;;;;;;;;-6.91;57.40;96280.25;5015426;28;19943;-77
2024/01/10 06:36:24;;;;;;;;;;;;;;;-6.89;59.44;96278.44;5013444;28;19997;-77
2024/01/10 06:38:49;;;;;;;;;;;;;;;-6.85;55.32;96278.34;5014293;28;19961;-77
2024/01/10 06:41:14;;;;;;;;;;;;;;;-6.91;55.69;96272.50;5015561;28;20409;-77
2024/01/10 06:43:40;;;;;;;;;;;;;;;-7.10;53.57;96279.19;5011956;28;20027;-77
2024/01/10 06:46:05;;;;;;;;;;;;;;;-7.08;58.46;96279.97;5015973;28;19937;-76
2024/01/10 06:48:31;;;;;;;;;;;;;;;-7.16;51.74;96267.31;5015855;28;19961;-77
2024/01/10 06:50:57;;;;;;;;;;;;;;;-7.31;49.06;96268.69;5017020;28;20031;-76
2024/01/10 06:53:22;;;;;;;;;;;;;;;-7.32;55.11;96269.56;5017212;28;20003;-76
2024/01/10 06:55:48;;;;;;;;;;;;;;;-7.28;50.54;96271.13;5017263;28;20564;-77
2024/01/10 06:58:13;;;;;;;;;;;;;;;-7.41;48.05;96265.56;5016903;28;20021;-77
2024/01/10 07:00:38;;;;;;;;;;;;;;;-7.43;45.89;96270.78;5016931;28;19959;-75
2024/01/10 07:03:04;;;;;;;;;;;;;;;-7.41;52.19;96268.97;5017586;28;19944;-77
2024/01/10 07:05:31;;;;;;;;;;;;;;;-7.36;50.25;96275.72;5017417;28;20415;-76
2024/01/10 07:07:56;;;;;;;;;;;;;;;-7.26;49.97;96269.38;5015744;28;19955;-77
2024/01/10 07:10:25;;;;;;;;;;;;;;;-7.20;49.86;96276.06;5015673;28;19957;-76
2024/01/10 07:12:51;;;;;;;;;;;;;;;-7.25;51.06;96276.22;5016659;28;19966;-77
2024/01/10 07:15:17;;;;;;;;;;;;;;;-7.30;46.79;96283.31;5014836;28;19957;-77
2024/01/10 07:17:43;;;;;;;;;;;;;;;-7.37;53.93;96287.84;5016816;28;19951;-76
2024/01/10 07:20:11;;;;;;;;;;;;;;;-7.37;52.06;96287.84;5016668;28;20229;-76
2024/01/10 07:22:39;;;;;;;;;;;;;;;-7.23;54.45;96289.97;5016261;28;20367;-78
2024/01/10 07:25:05;;;;;;;;;;;;;;;-7.33;51.19;96298.94;5020683;28;19996;-77
2024/01/10 07:27:31;;;;;;;;;;;;;;;-7.36;50.83;96299.03;5014012;28;20264;-77
2024/01/10 07:29:57;;;;;;;;;;;;;;;-7.25;52.34;96302.09;5016474;28;19977;-77
2024/01/10 07:32:22;;;;;;;;;;;;;;;-7.17;57.41;96302.69;5017971;28;20457;-74
2024/01/10 07:34:48;;;;;;;;;;;;;;;-7.26;55.79;96308.19;5024360;28;19968;-74
2024/01/10 07:37:13;;;;;;;;;;;;;;;-7.00;59.14;96311.66;5014800;28;19965;-75
2024/01/10 07:39:38;;;;;;;;;;;;;;;-6.95;60.67;96317.53;5006985;28;20394;-75
2024/01/10 07:42:03;;;;;;;;;;;;;;;-6.96;60.56;96322.75;4995175;28;19973;-75
2024/01/10 07:44:29;;;;;;;;;;;;;;;-6.92;55.87;96314.84;4997312;28;19952;-75
2024/01/10 07:46:55;;;;;;;;;;;;;;;-6.90;57.14;96322.56;4991043;28;19983;-75
2024/01/10 07:49:21;;;;;;;;;;;;;;;-6.96;55.58;96313.25;4993711;28;20352;-75
2024/01/10 07:51:47;;;;;;;;;;;;;;;-6.87;60.29;96317.25;4989227;28;20314;-76
2024/01/10 07:54:12;;;;;;;;;;;;;;;-6.86;56.90;96323.28;4994937;28;20035;-75
2024/01/10 07:56:37;;;;;;;;;;;;;;;-6.85;58.46;96323.22;4997033;28;19929;-74
2024/01/10 07:59:04;;;;;;;;;;;;;;;-6.95;55.25;96320.09;5001289;28;20414;-75
2024/01/10 08:01:29;;;;;;;;;;;;;;;-6.76;53.55;96324.66;5019096;28;20023;-76
2024/01/10 08:03:55;;;;;;;;;;;;;;;-6.80;55.48;96323.09;5013580;28;20229;-75
2024/01/10 08:06:20;;;;;;;;;;;;;;;-6.88;53.42;96326.78;5012921;28;20321;-75
2024/01/10 08:08:46;;;;;;;;;;;;;;;-6.91;54.64;96321.69;5015750;28;19976;-76
2024/01/10 08:11:11;;;;;;;;;;;;;;;-6.97;54.40;96323.66;5013604;28;20953;-74
2024/01/10 08:13:36;;;;;;;;;;;;;;;-6.88;59.13;96331.09;5018182;28;20238;-75
2024/01/10 08:16:03;;;;;;;;;;;;;;;-6.63;57.13;96336.28;5016762;28;19965;-74
2024/01/10 08:18:28;;;;;;;;;;;;;;;-6.55;57.92;96337.75;5015254;28;20124;-74
2024/01/10 08:20:55;;;;;;;;;;;;;;;-6.72;53.25;96327.97;5025059;28;20065;-75
2024/01/10 08:23:20;;;;;;;;;;;;;;;-6.60;56.02;96332.72;5023953;28;19958;-74
2024/01/10 08:25:45;;;;;;;;;;;;;;;-6.66;55.92;96331.19;5020584;28;19962;-75
2024/01/10 08:28:13;;;;;;;;;;;;;;;-6.58;56.32;96337.88;5018444;28;19932;-75
2024/01/10 08:30:38;;;;;;;;;;;;;;;-6.66;56.31;96344.16;5022594;28;20004;-76
2024/01/10 08:33:04;;;;;;;;;;;;;;;-6.39;57.19;96344.09;5016080;28;19936;-74
2024/01/10 08:35:29;;;;;;;;;;;;;;;-6.21;58.54;96336.56;5015939;28;19971;-76
2024/01/10 08:37:55;;;;;;;;;;;;;;;-6.16;57.80;96337.22;5017464;28;19929;-76
2024/01/10 08:40:23;;;;;;;;;;;;;;;-6.34;54.77;96337.91;5015174;28;19932;-76
2024/01/10 08:42:48;;;;;;;;;;;;;;;-6.07;54.50;96332.59;5016334;28;19925;-74
2024/01/10 08:45:14;;;;;;;;;;;;;;;-6.16;52.55;96338.97;5016932;28;20456;-74
2024/01/10 08:47:40;;;;;;;;;;;;;;;-5.85;57.65;96343.00;5012635;28;20211;-74
2024/01/10 08:50:08;;;;;;;;;;;;;;;-6.01;49.89;96342.75;5021938;28;20086;-75
2024/01/10 08:52:34;;;;;;;;;;;;;;;-5.88;53.11;96343.97;5014521;28;20128;-74
2024/01/10 08:54:59;;;;;;;;;;;;;;;-5.89;52.94;96349.22;5020623;28;20177;-74
2024/01/10 08:57:26;;;;;;;;;;;;;;;-6.01;54.70;96347.94;5016630;28;20078;-75
2024/01/10 08:59:52;;;;;;;;;;;;;;;-5.82;53.20;96342.91;5018325;28;20437;-74
2024/01/10 09:02:17;;;;;;;;;;;;;;;-5.86;52.66;96349.13;5014076;28;19959;-74
2024/01/10 09:04:42;;;;;;;;;;;;;;;-5.81;49.42;96359.31;5015660;28;19928;-74
2024/01/10 09:07:09;;;;;;;;;;;;;;;-5.91;52.00;96358.81;5019916;28;20237;-73
2024/01/10 09:09:34;;;;;;;;;;;;;;;-5.79;53.16;96355.78;5023428;28;19921;-74
2024/01/10 09:11:59;;;;;;;;;;;;;;;-5.51;56.39;96361.63;5016147;28;19925;-75
2024/01/10 09:14:25;;;;;;;;;;;;;;;-5.59;51.97;96361.94;5019388;28;19921;-75
2024/01/10 09:16:50;;;;;;;;;;;;;;;-5.69;51.11;96360.59;5017196;28;19986;-74
2024/01/10 09:19:15;;;;;;;;;;;;;;;-5.61;54.87;96367.19;5015460;28;20335;-75
2024/01/10 09:21:40;;;;;;;;;;;;;;;-5.47;54.11;96366.66;5016883;28;19921;-74
2024/01/10 09:24:08;;;;;;;;;;;;;;;-5.40;56.07;96362.06;5013641;28;20367;-74
2024/01/10 09:26:34;;;;;;;;;;;;;;;-5.32;53.64;96359.19;5015063;28;20333;-74
2024/01/10 09:28:59;;;;;;;;;;;;;;;-5.20;55.78;96360.44;5014807;28;20558;-74
2024/01/10 09:31:24;;;;;;;;;;;;;;;-5.23;52.55;96358.81;5016546;28;20323;-74
2024/01/10 09:33:49;;;;;;;;;;;;;;;-5.16;54.33;96351.63;5016322;28;20228;-74
2024/01/10 09:36:15;;;;;;;;;;;;;;;-5.16;46.14;96356.84;5014157;28;20437;-75
2024/01/10 09:38:40;;;;;;;;;;;;;;;-5.02;48.55;96356.28;5012420;28;20381;-74
2024/01/10 09:41:05;;;;;;;;;;;;;;;-4.85;54.72;96355.53;5015545;28;20004;-74
2024/01/10 09:43:31;;;;;;;;;;;;;;;-4.76;51.14;96361.28;5013264;28;19940;-74
2024/01/10 09:45:57;;;;;;;;;;;;;;;-4.56;54.52;96363.03;5017636;28;20000;-75
2024/01/10 09:48:22;;;;;;;;;;;;;;;-4.37;56.73;96360.50;5013712;28;20492;-75
2024/01/10 09:50:48;;;;;;;;;;;;;;;-4.34;53.41;96359.53;5017911;28;20131;-74
2024/01/10 09:53:16;;;;;;;;;;;;;;;-4.34;46.70;96362.97;5013253;28;20508;-75
2024/01/10 09:55:42;;;;;;;;;;;;;;;-4.23;52.47;96361.66;5018320;28;20297;-74
2024/01/10 09:58:08;;;;;;;;;;;;;;;-4.00;54.26;96357.19;5001630;28;19920;-74
2024/01/10 10:00:35;;;;;;;;;;;;;;;-4.01;53.46;96358.09;5019180;28;20667;-74
2024/01/10 10:03:01;;;;;;;;;;;;;;;-3.73;55.63;96359.44;5014148;28;20362;-74
2024/01/10 10:05:26;;;;;;;;;;;;;;;-3.58;56.42;96365.69;5015741;28;20148;-75
2024/01/10 10:07:53;;;;;;;;;;;;;;;-3.54;56.60;96370.72;5014114;28;19925;-75
2024/01/10 10:10:18;;;;;;;;;;;;;;;-4.16;50.48;96373.47;5001217;28;20279;-74
2024/01/10 10:12:53;;;;;;;;;;;;;;;-3.53;53.40;96380.19;5022752;28;19924;-75
2024/01/10 10:15:21;;;;;;;;;;;;;;;-3.29;57.14;96372.16;5013579;28;20007;-74
2024/01/10 10:17:48;;;;;;;;;;;;;;;-2.93;53.62;96369.59;5014916;28;20440;-74
2024/01/10 10:20:19;;;;;;;;;;;;;;;-2.81;55.90;96358.59;5014939;28;19925;-75
2024/01/10 10:23:03;;;;;;;;;;;;;;;-2.76;55.11;96360.94;5017166;28;19943;-74
2024/01/10 10:25:30;;;;;;;;;;;;;;;-2.55;55.61;96359.03;5014498;28;20455;-74
2024/01/10 10:27:55;;;;;;;;;;;;;;;-2.45;56.53;96356.81;5017502;28;20143;-74
2024/01/10 10:30:22;;;;;;;;;;;;;;;-2.19;55.93;96356.38;5025108;28;20158;-74
2024/01/10 10:32:47;;;;;;;;;;;;;;;-1.94;55.12;96355.13;5016333;28;19974;-74
2024/01/10 10:35:12;;;;;;;;;;;;;;;-2.03;54.81;96357.25;5015978;28;19937;-75
2024/01/10 10:37:38;;;;;;;;;;;;;;;-2.05;48.81;96353.03;5018847;28;20394;-74
2024/01/10 10:40:03;;;;;;;;;;;;;;;-1.43;53.05;96356.75;5015579;28;19929;-75
2024/01/10 10:42:29;;;;;;;;;;;;;;;-1.50;48.25;96351.84;5013179;28;20294;-74
2024/01/10 10:44:55;;;;;;;;;;;;;;;-1.30;47.57;96352.53;5015617;28;20392;-74
2024/01/10 10:47:20;;;;;;;;;;;;;;;-1.13;41.72;96343.72;5013137;28;20378;-75
2024/01/10 10:49:47;;;;;;;;;;;;;;;-1.09;49.33;96352.22;5015511;28;19920;-74
2024/01/10 10:52:13;;;;;;;;;;;;;;;-1.19;46.04;96351.91;5013688;28;19925;-75
2024/01/10 10:54:38;;;;;;;;;;;;;;;-0.93;51.38;96352.25;5013990;28;19974;-74
2024/01/10 10:57:03;;;;;;;;;;;;;;;-0.82;41.34;96341.16;5015217;28;20019;-74
2024/01/10 10:59:28;;;;;;;;;;;;;;;-0.99;49.10;96348.19;5012527;28;19971;-75
2024/01/10 11:01:54;;;;;;;;;;;;;;;-0.58;48.30;96335.44;5010969;28;19967;-75
2024/01/10 11:04:19;;;;;;;;;;;;;;;-0.36;48.69;96334.16;5016719;28;19991;-74
2024/01/10 11:06:45;;;;;;;;;;;;;;;-0.59;42.99;96325.91;5015522;28;20063;-75
2024/01/10 11:09:14;;;;;;;;;;;;;;;-0.43;45.04;96328.47;5017483;28;19931;-74
2024/01/10 11:11:48;;;;;;;;;;;;;;;-0.37;43.96;96322.84;5015445;28;20166;-74
2024/01/10 11:14:32;;;;;;;;;;;;;;;-0.23;40.85;96322.00;5012494;28;20332;-74
2024/01/10 11:17:06;;;;;;;;;;;;;;;-0.64;42.47;96313.09;5012132;28;20398;-74
2024/01/10 11:19:42;;;;;;;;;;;;;;;-0.59;42.66;96315.44;5015214;28;19925;-74
2024/01/10 11:22:14;;;;;;;;;;;;;;;-0.44;39.32;96318.91;5020409;28;19925;-74
2024/01/10 11:24:40;;;;;;;;;;;;;;;-0.27;38.59;96320.50;5012627;28;20302;-74
2024/01/10 11:27:12;;;;;;;;;;;;;;;-0.80;41.90;96315.78;5018021;28;19921;-75
2024/01/10 11:29:39;;;;;;;;;;;;;;;-0.51;39.75;96322.84;5013538;28;20250;-74
2024/01/10 11:32:04;;;;;;;;;;;;;;;-0.57;35.75;96318.81;5010891;28;20020;-74
2024/01/10 11:34:30;;;;;;;;;;;;;;;-0.38;35.96;96328.16;5013938;28;20635;-74
2024/01/10 11:37:08;;;;;;;;;;;;;;;-0.74;33.58;96318.00;5013740;28;19973;-74
2024/01/10 11:39:35;;;;;;;;;;;;;;;-0.53;41.31;96322.94;5015552;28;19925;-75
2024/01/10 11:42:00;;;;;;;;;;;;;;;-0.37;39.46;96319.41;5016144;28;20647;-74
2024/01/10 11:44:25;;;;;;;;;;;;;;;-0.26;42.32;96322.22;5012614;28;19925;-75
2024/01/10 11:46:52;;;;;;;;;;;;;;;-0.65;43.74;96313.22;4997434;28;19928;-75
2024/01/10 11:49:18;;;;;;;;;;;;;;;-0.43;44.20;96318.00;5014537;28;20289;-74
2024/01/10 11:51:56;;;;;;;;;;;;;;;-0.46;43.84;96311.19;5021256;28;19963;-75
2024/01/10 11:54:41;;;;;;;;;;;;;;;-0.26;33.50;96317.00;5026141;28;19924;-74
2024/01/10 11:57:12;;;;;;;;;;;;;;;-0.02;41.95;96308.56;5020524;28;20398;-74
2024/01/10 11:59:39;;;;;;;;;;;;;;;-0.49;37.94;96316.59;5012832;28;20327;-75
2024/01/10 12:02:04;;;;;;;;;;;;;;;-0.06;40.80;96318.38;5020199;28;19924;-74
2024/01/10 12:04:31;;;;;;;;;;;;;;;0.52;39.60;96317.47;5021461;28;20373;-74
2024/01/10 12:06:56;;;;;;;;;;;;;;;1.84;38.22;96321.13;5020097;28;20043;-74
2024/01/10 12:09:24;;;;;;;;;;;;;;;2.85;39.67;96315.84;5015714;28;20912;-75
2024/01/10 12:11:49;;;;;;;;;;;;;;;2.92;36.75;96316.22;5020332;28;19925;-73
2024/01/10 12:14:15;;;;;;;;;;;;;;;3.93;39.14;96314.03;5021490;28;19982;-75
2024/01/10 12:16:40;;;;;;;;;;;;;;;4.23;35.85;96318.81;5017545;28;20075;-74
2024/01/10 12:19:05;;;;;;;;;;;;;;;4.15;37.50;96312.34;5018843;28;19937;-75
2024/01/10 12:21:31;;;;;;;;;;;;;;;3.58;35.12;96309.66;5022162;28;20198;-74
2024/01/10 12:23:56;;;;;;;;;;;;;;;3.43;37.29;96309.84;5018215;28;19925;-74
2024/01/10 12:26:22;;;;;;;;;;;;;;;3.50;32.78;96307.59;5023964;28;20473;-76
2024/01/10 12:28:54;;;;;;;;;;;;;;;3.37;36.38;96305.03;5015613;28;19929;-74
2024/01/10 12:31:19;;;;;;;;;;;;;;;3.17;31.94;96307.34;5013505;28;19929;-75
2024/01/10 12:33:45;;;;;;;;;;;;;;;3.14;33.41;96310.22;5019753;28;20190;-75
2024/01/10 12:36:10;;;;;;;;;;;;;;;2.53;34.66;96311.13;5020818;28;19975;-75
2024/01/10 12:38:36;;;;;;;;;;;;;;;2.02;34.03;96318.19;5017097;28;20015;-69
2024/01/10 12:41:01;;;;;;;;;;;;;;;1.92;37.42;96317.13;5020759;28;20595;-70